createdAt,value
2017-10-04T00:00:54.740Z,3.60
2017-10-04T00:03:22.136Z,4.70
2017-10-04T00:05:49.545Z,3.90
2017-10-04T00:08:16.953Z,4.50
2017-10-04T00:10:44.366Z,3.90
2017-10-04T00:13:11.798Z,3.67
2017-10-04T00:15:39.228Z,4.47
2017-10-04T00:18:06.631Z,3.70
2017-10-04T00:20:34.017Z,3.80
2017-10-04T00:23:01.447Z,3.90
2017-10-04T00:25:29.089Z,4.40
2017-10-04T00:27:56.483Z,4.00
2017-10-04T00:30:23.909Z,4.20
2017-10-04T00:32:51.313Z,4.33
2017-10-04T00:35:18.712Z,3.73
2017-10-04T00:37:46.113Z,4.80
2017-10-04T00:40:13.787Z,4.27
2017-10-04T00:42:41.735Z,4.15
2017-10-04T00:45:09.130Z,3.73
2017-10-04T00:47:36.547Z,4.60
2017-10-04T00:50:03.968Z,4.20
2017-10-04T00:52:31.484Z,4.00
2017-10-04T00:54:59.002Z,4.00
2017-10-04T00:57:26.654Z,3.90
2017-10-04T00:59:54.054Z,5.20
2017-10-04T01:02:21.458Z,3.90
2017-10-04T01:04:48.856Z,4.53
2017-10-04T01:07:16.277Z,4.43
2017-10-04T01:09:43.674Z,4.80
2017-10-04T01:12:11.387Z,4.43
2017-10-04T01:14:38.780Z,5.27
2017-10-04T01:17:06.196Z,5.00
2017-10-04T01:19:33.601Z,4.93
2017-10-04T01:22:01.017Z,4.23
2017-10-04T01:24:28.417Z,4.80
2017-10-04T01:26:55.851Z,4.00
2017-10-04T01:29:23.263Z,5.30
2017-10-04T01:31:50.787Z,4.60
2017-10-04T01:34:18.205Z,4.00
2017-10-04T01:36:45.646Z,5.10
2017-10-04T01:39:13.056Z,3.47
2017-10-04T01:41:40.578Z,3.93
2017-10-04T01:44:07.997Z,4.87
2017-10-04T01:46:35.401Z,4.30
2017-10-04T01:49:02.828Z,4.37
2017-10-04T01:51:30.260Z,5.10
2017-10-04T01:53:57.689Z,4.17
2017-10-04T01:56:25.099Z,4.30
2017-10-04T01:58:52.476Z,4.67
2017-10-04T02:01:20.682Z,4.80
2017-10-04T02:03:48.053Z,4.67
2017-10-04T02:06:15.456Z,4.80
2017-10-04T02:08:42.875Z,4.20
2017-10-04T02:11:10.418Z,4.40
2017-10-04T02:13:37.838Z,4.60
2017-10-04T02:16:05.229Z,4.83
2017-10-04T02:18:32.637Z,4.57
2017-10-04T02:21:00.049Z,4.30
2017-10-04T02:23:27.445Z,4.20
2017-10-04T02:25:54.878Z,4.10
2017-10-04T02:28:22.269Z,5.07
2017-10-04T02:30:49.698Z,4.73
2017-10-04T02:33:17.089Z,5.00
2017-10-04T02:35:44.558Z,8.40
2017-10-04T02:38:12.118Z,4.57
2017-10-04T02:40:39.584Z,4.90
2017-10-04T02:43:07.069Z,4.87
2017-10-04T02:45:34.509Z,4.43
2017-10-04T02:48:01.930Z,5.37
2017-10-04T02:50:30.336Z,4.47
2017-10-04T02:52:57.730Z,4.55
2017-10-04T02:55:25.177Z,4.83
2017-10-04T02:57:52.592Z,4.90
2017-10-04T03:00:20.011Z,5.53
2017-10-04T03:02:47.427Z,4.80
2017-10-04T03:05:14.822Z,4.93
2017-10-04T03:07:42.876Z,4.82
2017-10-04T03:10:10.297Z,5.20
2017-10-04T03:12:37.707Z,4.43
2017-10-04T03:15:05.203Z,4.70
2017-10-04T03:17:32.592Z,4.40
2017-10-04T03:20:00.018Z,5.10
2017-10-04T03:22:27.441Z,5.23
2017-10-04T03:24:54.835Z,5.10
2017-10-04T03:27:22.518Z,4.77
2017-10-04T03:29:49.938Z,5.53
2017-10-04T03:32:17.453Z,5.10
2017-10-04T03:34:44.872Z,4.60
2017-10-04T03:37:12.254Z,5.00
2017-10-04T03:39:39.672Z,4.90
2017-10-04T03:42:07.071Z,4.33
2017-10-04T03:44:34.468Z,5.50
2017-10-04T03:47:01.895Z,4.63
2017-10-04T03:49:29.326Z,5.20
2017-10-04T03:51:56.758Z,5.90
2017-10-04T03:54:24.341Z,5.60
2017-10-04T03:56:51.800Z,5.60
2017-10-04T03:59:19.195Z,5.10
2017-10-04T04:01:46.598Z,5.30
2017-10-04T04:04:14.006Z,4.57
2017-10-04T04:06:41.385Z,5.93
2017-10-04T04:09:08.798Z,5.20
2017-10-04T04:11:36.558Z,5.03
2017-10-04T04:14:04.210Z,5.50
2017-10-04T04:16:31.596Z,5.20
2017-10-04T04:18:59.179Z,5.80
2017-10-04T04:21:26.889Z,5.60
2017-10-04T04:23:54.293Z,5.82
2017-10-04T04:26:21.718Z,6.07
2017-10-04T04:28:49.180Z,6.40
2017-10-04T04:31:16.603Z,5.50
2017-10-04T04:33:44.098Z,5.93
2017-10-04T04:36:11.534Z,6.53
2017-10-04T04:38:50.987Z,6.20
2017-10-04T04:41:18.405Z,7.17
2017-10-04T04:43:45.802Z,6.13
2017-10-04T04:46:13.191Z,6.47
2017-10-04T04:48:40.608Z,7.17
2017-10-04T04:51:08.040Z,6.27
2017-10-04T04:53:35.441Z,7.18
2017-10-04T04:56:02.853Z,7.07
2017-10-04T04:58:30.256Z,6.20
2017-10-04T05:00:57.680Z,7.07
2017-10-04T05:03:25.064Z,7.00
2017-10-04T05:05:52.504Z,7.90
2017-10-04T05:08:19.985Z,8.07
2017-10-04T05:10:47.403Z,7.50
2017-10-04T05:13:14.885Z,7.30
2017-10-04T05:15:42.296Z,8.20
2017-10-04T05:18:09.737Z,6.90
2017-10-04T05:20:37.163Z,7.30
2017-10-04T05:23:04.573Z,7.27
2017-10-04T05:25:31.972Z,7.13
2017-10-04T05:27:59.403Z,7.00
2017-10-04T05:30:26.786Z,7.00
2017-10-04T05:32:54.224Z,7.47
2017-10-04T05:35:21.682Z,7.00
2017-10-04T05:37:49.077Z,7.40
2017-10-04T05:40:16.496Z,7.97
2017-10-04T05:42:43.882Z,7.77
2017-10-04T05:45:11.492Z,7.50
2017-10-04T05:47:38.891Z,9.33
2017-10-04T05:50:06.314Z,7.70
2017-10-04T05:52:33.737Z,8.57
2017-10-04T05:55:01.128Z,9.03
2017-10-04T05:57:28.585Z,8.83
2017-10-04T05:59:56.027Z,8.50
2017-10-04T06:02:23.441Z,8.70
2017-10-04T06:04:50.838Z,7.83
2017-10-04T06:07:18.245Z,8.10
2017-10-04T06:09:45.668Z,7.80
2017-10-04T06:12:13.078Z,8.77
2017-10-04T06:14:40.492Z,8.23
2017-10-04T06:17:07.878Z,8.00
2017-10-04T06:19:35.294Z,7.70
2017-10-04T06:22:02.701Z,8.37
2017-10-04T06:24:30.141Z,7.35
2017-10-04T06:26:57.720Z,7.67
2017-10-04T06:29:25.174Z,8.30
2017-10-04T06:31:52.585Z,8.37
2017-10-04T06:34:19.987Z,7.80
2017-10-04T06:36:47.408Z,8.27
2017-10-04T06:39:14.825Z,7.50
2017-10-04T06:41:42.245Z,7.70
2017-10-04T06:44:09.662Z,8.23
2017-10-04T06:46:37.065Z,7.83
2017-10-04T06:49:04.456Z,8.73
2017-10-04T06:51:32.035Z,8.17
2017-10-04T06:53:59.457Z,8.70
2017-10-04T06:56:26.849Z,9.07
2017-10-04T06:58:54.292Z,8.30
2017-10-04T07:01:21.712Z,10.03
2017-10-04T07:03:49.108Z,8.43
2017-10-04T07:06:16.540Z,7.40
2017-10-04T07:08:43.946Z,8.73
2017-10-04T07:11:11.369Z,8.90
2017-10-04T07:13:38.783Z,7.60
2017-10-04T07:16:06.238Z,8.37
2017-10-04T07:18:33.635Z,6.77
2017-10-04T07:21:01.046Z,8.57
2017-10-04T07:23:28.454Z,7.77
2017-10-04T07:25:55.847Z,7.87
2017-10-04T07:28:23.325Z,8.13
2017-10-04T07:30:50.705Z,8.50
2017-10-04T07:33:18.125Z,8.30
2017-10-04T07:35:45.556Z,7.57
2017-10-04T07:38:12.952Z,8.73
2017-10-04T07:40:40.363Z,7.50
2017-10-04T07:43:07.761Z,7.83
2017-10-04T07:45:35.436Z,7.50
2017-10-04T07:48:02.909Z,7.37
2017-10-04T07:50:30.417Z,12.60
2017-10-04T07:52:57.853Z,8.10
2017-10-04T07:55:25.278Z,7.63
2017-10-04T07:57:52.668Z,11.80
2017-10-04T08:00:20.099Z,8.23
2017-10-04T08:02:47.498Z,12.80
2017-10-04T08:05:14.924Z,11.83
2017-10-04T08:07:42.345Z,7.83
2017-10-04T08:10:10.682Z,8.83
2017-10-04T08:12:38.117Z,10.33
2017-10-04T08:15:05.517Z,10.00
2017-10-04T08:17:32.962Z,9.60
2017-10-04T08:20:00.367Z,8.80
2017-10-04T08:22:27.897Z,8.97
2017-10-04T08:24:55.340Z,9.30
2017-10-04T08:27:22.738Z,7.37
2017-10-04T08:29:50.180Z,7.20
2017-10-04T08:32:17.582Z,8.23
2017-10-04T08:34:44.996Z,8.93
2017-10-04T08:37:12.421Z,7.77
2017-10-04T08:39:39.857Z,7.90
2017-10-04T08:42:07.258Z,8.27
2017-10-04T08:44:34.660Z,8.40
2017-10-04T08:47:13.780Z,7.77
2017-10-04T08:49:41.206Z,7.90
2017-10-04T08:52:08.603Z,8.50
2017-10-04T08:54:36.018Z,9.40
2017-10-04T08:57:03.450Z,8.10
2017-10-04T08:59:30.906Z,8.83
2017-10-04T09:01:58.315Z,8.23
2017-10-04T09:04:37.623Z,9.20
2017-10-04T09:07:05.177Z,8.60
2017-10-04T09:09:32.577Z,8.40
2017-10-04T09:12:00.120Z,7.77
2017-10-04T09:14:27.525Z,8.47
2017-10-04T09:16:54.950Z,8.20
2017-10-04T09:19:22.365Z,9.00
2017-10-04T09:21:49.769Z,8.03
2017-10-04T09:24:17.199Z,7.67
2017-10-04T09:26:44.649Z,8.73
2017-10-04T09:29:12.068Z,8.20
2017-10-04T09:31:39.487Z,8.37
2017-10-04T09:34:06.870Z,8.93
2017-10-04T09:36:34.306Z,9.07
2017-10-04T09:39:01.695Z,23.00
2017-10-04T09:41:29.115Z,8.30
2017-10-04T09:43:56.546Z,11.00
2017-10-04T09:46:23.968Z,13.80
2017-10-04T09:48:51.404Z,8.43
2017-10-04T09:51:18.880Z,6.30
2017-10-04T09:53:46.281Z,5.80
2017-10-04T09:56:13.735Z,5.03
2017-10-04T09:58:41.165Z,4.53
2017-10-04T10:01:08.581Z,4.63
2017-10-04T10:03:35.989Z,4.23
2017-10-04T10:06:03.409Z,4.22
2017-10-04T10:08:30.842Z,4.33
2017-10-04T10:10:58.241Z,4.57
2017-10-04T10:13:25.644Z,3.90
2017-10-04T10:15:53.074Z,4.10
2017-10-04T10:18:20.567Z,4.15
2017-10-04T10:20:47.988Z,3.13
2017-10-04T10:23:15.376Z,3.60
2017-10-04T10:25:42.769Z,3.83
2017-10-04T10:28:10.486Z,3.87
2017-10-04T10:30:37.879Z,3.70
2017-10-04T10:33:05.573Z,3.50
2017-10-04T10:35:33.045Z,3.90
2017-10-04T10:38:00.483Z,2.97
2017-10-04T10:40:28.004Z,3.00
2017-10-04T10:42:55.439Z,3.43
2017-10-04T10:45:22.866Z,3.47
2017-10-04T10:47:50.299Z,3.87
2017-10-04T10:50:17.708Z,3.80
2017-10-04T10:52:45.756Z,3.22
2017-10-04T10:55:13.201Z,3.67
2017-10-04T10:57:40.593Z,3.50
2017-10-04T11:00:08.085Z,2.90
2017-10-04T11:02:35.503Z,3.60
2017-10-04T11:05:02.900Z,3.50
2017-10-04T11:07:30.297Z,3.80
2017-10-04T11:09:57.713Z,3.90
2017-10-04T11:12:25.168Z,3.40
2017-10-04T11:14:52.543Z,2.90
2017-10-04T11:17:19.940Z,3.47
2017-10-04T11:19:47.369Z,3.00
2017-10-04T11:22:14.748Z,2.47
2017-10-04T11:24:42.158Z,3.60
2017-10-04T11:27:09.593Z,3.70
2017-10-04T11:29:37.034Z,3.35
2017-10-04T11:32:04.496Z,3.50
2017-10-04T11:34:31.893Z,3.20
2017-10-04T11:36:59.340Z,3.07
2017-10-04T11:39:27.000Z,3.60
2017-10-04T11:41:55.449Z,2.47
2017-10-04T11:44:22.870Z,3.20
2017-10-04T11:46:50.331Z,3.70
2017-10-04T11:49:17.738Z,2.57
2017-10-04T11:51:45.268Z,2.28
2017-10-04T11:54:12.688Z,2.90
2017-10-04T11:56:40.092Z,4.27
2017-10-04T11:59:07.522Z,2.40
2017-10-04T12:01:34.916Z,3.63
2017-10-04T12:04:02.363Z,2.90
2017-10-04T12:06:29.795Z,2.77
2017-10-04T12:08:57.222Z,3.03
2017-10-04T12:11:24.605Z,2.60
2017-10-04T12:13:52.032Z,2.73
2017-10-04T12:16:19.494Z,3.17
2017-10-04T12:18:46.905Z,3.23
2017-10-04T12:21:14.342Z,3.53
2017-10-04T12:23:41.789Z,3.30
2017-10-04T12:26:09.212Z,2.97
2017-10-04T12:28:36.624Z,2.63
2017-10-04T12:31:04.113Z,2.70
2017-10-04T12:33:31.647Z,2.30
2017-10-04T12:35:59.152Z,2.33
2017-10-04T12:38:26.593Z,2.70
2017-10-04T12:40:54.017Z,5.90
2017-10-04T12:43:21.415Z,3.03
2017-10-04T12:45:48.851Z,2.60
2017-10-04T12:48:16.270Z,2.87
2017-10-04T12:50:43.631Z,2.53
2017-10-04T12:53:11.095Z,3.40
2017-10-04T12:55:38.496Z,2.80
2017-10-04T12:58:05.944Z,3.07
2017-10-04T13:00:33.346Z,3.20
2017-10-04T13:03:00.773Z,2.30
2017-10-04T13:05:28.181Z,2.83
2017-10-04T13:07:55.746Z,2.53
2017-10-04T13:10:23.248Z,2.90
2017-10-04T13:12:50.744Z,3.07
2017-10-04T13:15:18.217Z,3.70
2017-10-04T13:17:45.625Z,3.07
2017-10-04T13:20:13.046Z,3.50
2017-10-04T13:22:40.445Z,2.90
2017-10-04T13:25:07.867Z,3.00
2017-10-04T13:27:35.301Z,2.67
2017-10-04T13:30:02.718Z,2.73
2017-10-04T13:32:30.114Z,3.00
2017-10-04T13:34:57.526Z,2.30
2017-10-04T13:37:24.964Z,2.83
2017-10-04T13:39:52.362Z,3.17
2017-10-04T13:42:19.811Z,2.77
2017-10-04T13:44:47.232Z,2.93
2017-10-04T13:47:14.664Z,3.20
2017-10-04T13:49:42.062Z,2.97
2017-10-04T13:52:09.533Z,3.40
2017-10-04T13:54:36.942Z,2.75
2017-10-04T13:57:04.336Z,2.87
2017-10-04T13:59:31.764Z,2.77
2017-10-04T14:01:59.169Z,2.97
2017-10-04T14:04:26.599Z,2.60
2017-10-04T14:06:53.991Z,2.07
2017-10-04T14:09:21.387Z,2.90
2017-10-04T14:11:48.818Z,2.67
2017-10-04T14:14:16.222Z,2.43
2017-10-04T14:16:43.633Z,2.40
2017-10-04T14:19:11.173Z,2.47
2017-10-04T14:21:38.611Z,2.70
2017-10-04T14:24:06.018Z,2.50
2017-10-04T14:26:33.444Z,2.97
2017-10-04T14:29:01.016Z,3.03
2017-10-04T14:31:28.414Z,3.13
2017-10-04T14:33:55.858Z,2.60
2017-10-04T14:36:23.444Z,3.27
2017-10-04T14:38:50.850Z,2.17
2017-10-04T14:41:18.281Z,2.70
2017-10-04T14:43:45.701Z,2.87
2017-10-04T14:46:13.142Z,2.07
2017-10-04T14:48:40.590Z,2.83
2017-10-04T14:51:07.974Z,2.50
2017-10-04T14:53:35.402Z,2.57
2017-10-04T14:56:02.815Z,3.17
2017-10-04T14:58:30.256Z,3.07
2017-10-04T15:00:57.811Z,3.03
2017-10-04T15:03:25.208Z,2.50
2017-10-04T15:05:52.664Z,2.70
2017-10-04T15:08:20.054Z,2.87
2017-10-04T15:10:47.534Z,2.77
2017-10-04T15:13:15.837Z,4.30
2017-10-04T15:15:43.269Z,3.10
2017-10-04T15:18:10.757Z,2.30
2017-10-04T15:20:38.167Z,2.67
2017-10-04T15:23:05.558Z,2.87
2017-10-04T15:25:32.973Z,3.00
2017-10-04T15:28:00.446Z,2.80
2017-10-04T15:30:27.882Z,3.43
2017-10-04T15:32:55.294Z,2.50
2017-10-04T15:35:22.714Z,3.00
2017-10-04T15:37:50.198Z,3.00
2017-10-04T15:40:17.686Z,2.50
2017-10-04T15:42:45.089Z,3.37
2017-10-04T15:45:12.759Z,2.63
2017-10-04T15:47:40.238Z,2.40
2017-10-04T15:50:07.693Z,2.27
2017-10-04T15:52:35.084Z,3.17
2017-10-04T15:55:02.511Z,2.80
2017-10-04T15:57:29.953Z,3.40
2017-10-04T15:59:57.508Z,3.17
2017-10-04T16:02:24.905Z,2.90
2017-10-04T16:04:52.431Z,2.73
2017-10-04T16:07:19.893Z,2.93
2017-10-04T16:09:47.335Z,3.60
2017-10-04T16:12:14.849Z,3.33
2017-10-04T16:14:42.255Z,3.13
2017-10-04T16:17:09.705Z,3.00
2017-10-04T16:19:37.179Z,3.27
2017-10-04T16:22:04.591Z,3.37
2017-10-04T16:24:32.016Z,3.13
2017-10-04T16:26:59.420Z,3.27
2017-10-04T16:29:26.904Z,3.03
2017-10-04T16:31:54.293Z,2.90
2017-10-04T16:34:21.718Z,2.97
2017-10-04T16:36:49.120Z,3.00
2017-10-04T16:39:16.639Z,3.20
2017-10-04T16:41:44.027Z,3.10
2017-10-04T16:44:11.442Z,2.50
2017-10-04T16:46:38.847Z,2.83
2017-10-04T16:49:06.284Z,3.30
2017-10-04T16:51:33.708Z,2.97
2017-10-04T16:54:01.155Z,3.40
2017-10-04T16:56:28.576Z,3.27
2017-10-04T16:58:55.994Z,3.60
2017-10-04T17:01:23.405Z,3.83
2017-10-04T17:03:50.820Z,3.50
2017-10-04T17:06:18.206Z,4.50
2017-10-04T17:08:45.769Z,3.50
2017-10-04T17:11:13.192Z,3.20
2017-10-04T17:13:40.653Z,3.47
2017-10-04T17:16:08.095Z,3.43
2017-10-04T17:18:35.509Z,3.60
2017-10-04T17:21:02.920Z,3.50
2017-10-04T17:23:30.333Z,3.00
2017-10-04T17:25:57.761Z,3.13
2017-10-04T17:28:25.193Z,2.90
2017-10-04T17:30:52.604Z,3.20
2017-10-04T17:33:20.007Z,3.43
2017-10-04T17:35:47.411Z,3.20
2017-10-04T17:38:14.821Z,3.00
2017-10-04T17:40:42.249Z,3.50
2017-10-04T17:43:09.698Z,3.60
2017-10-04T17:45:38.934Z,3.57
2017-10-04T17:48:06.970Z,3.17
2017-10-04T17:50:34.453Z,3.65
2017-10-04T17:53:01.859Z,3.93
2017-10-04T17:55:29.263Z,4.30
2017-10-04T17:57:56.677Z,3.73
2017-10-04T18:00:24.608Z,3.50
2017-10-04T18:02:52.538Z,3.83
2017-10-04T18:05:20.032Z,3.47
2017-10-04T18:07:47.465Z,3.40
2017-10-04T18:10:14.876Z,3.73
2017-10-04T18:12:42.320Z,2.90
2017-10-04T18:15:09.748Z,5.47
2017-10-04T18:17:37.365Z,2.90
2017-10-04T18:20:04.776Z,3.47
2017-10-04T18:22:32.206Z,3.57
2017-10-04T18:24:59.642Z,3.73
2017-10-04T18:27:27.502Z,2.97
2017-10-04T18:29:54.958Z,3.63
2017-10-04T18:32:22.468Z,3.53
2017-10-04T18:34:53.864Z,3.15
2017-10-04T18:37:33.134Z,2.97
2017-10-04T18:40:02.709Z,3.00
2017-10-04T18:42:31.024Z,3.50
2017-10-04T18:44:58.765Z,3.93
2017-10-04T18:47:26.971Z,4.20
2017-10-04T18:49:54.464Z,3.17
2017-10-04T18:52:22.849Z,4.70
2017-10-04T18:54:50.319Z,4.22
2017-10-04T18:57:17.734Z,4.40
2017-10-04T18:59:45.183Z,3.33
2017-10-04T19:02:12.576Z,4.10
2017-10-04T19:04:40.009Z,3.70
2017-10-04T19:07:07.435Z,3.67
2017-10-04T19:09:35.025Z,3.70
2017-10-04T19:12:04.689Z,3.53
2017-10-04T19:14:32.656Z,3.63
2017-10-04T19:17:00.681Z,3.10
2017-10-04T19:19:28.088Z,3.50
2017-10-04T19:21:58.287Z,3.53
2017-10-04T19:24:25.894Z,3.92
2017-10-04T19:26:53.329Z,3.87
2017-10-04T19:29:20.828Z,3.47
2017-10-04T19:31:48.213Z,2.93
2017-10-04T19:34:15.643Z,3.00
2017-10-04T19:36:43.057Z,4.10
2017-10-04T19:39:10.533Z,3.10
2017-10-04T19:41:37.921Z,3.25
2017-10-04T19:44:05.392Z,3.70
2017-10-04T19:46:32.806Z,3.77
2017-10-04T19:49:00.234Z,3.00
2017-10-04T19:51:30.013Z,3.13
2017-10-04T19:53:57.430Z,3.40
2017-10-04T19:56:24.835Z,3.77
2017-10-04T19:58:52.255Z,3.20
2017-10-04T20:01:19.690Z,2.90
2017-10-04T20:03:47.102Z,3.20
2017-10-04T20:06:14.533Z,3.00
2017-10-04T20:08:41.976Z,3.97
2017-10-04T20:11:09.426Z,3.30
2017-10-04T20:13:36.847Z,3.20
2017-10-04T20:16:04.325Z,2.72
2017-10-04T20:18:32.482Z,2.40
2017-10-04T20:20:59.874Z,3.37
2017-10-04T20:23:27.304Z,3.50
2017-10-04T20:25:54.983Z,3.03
2017-10-04T20:28:22.418Z,2.80
2017-10-04T20:30:49.844Z,3.07
2017-10-04T20:33:17.222Z,3.20
2017-10-04T20:35:44.676Z,2.73
2017-10-04T20:38:12.193Z,3.20
2017-10-04T20:40:39.642Z,3.27
2017-10-04T20:43:07.055Z,3.07
2017-10-04T20:45:34.463Z,8.07
2017-10-04T20:48:01.883Z,12.97
2017-10-04T20:50:29.304Z,3.13
2017-10-04T20:52:56.783Z,3.78
2017-10-04T20:55:24.837Z,3.20
2017-10-04T20:57:52.269Z,3.47
2017-10-04T21:00:19.741Z,3.40
2017-10-04T21:02:47.132Z,3.50
2017-10-04T21:05:14.535Z,2.80
2017-10-04T21:07:42.021Z,3.07
2017-10-04T21:10:09.411Z,2.90
2017-10-04T21:12:36.857Z,2.93
2017-10-04T21:15:04.291Z,3.07
2017-10-04T21:17:31.746Z,3.30
2017-10-04T21:19:59.158Z,2.70
2017-10-04T21:22:26.562Z,3.40
2017-10-04T21:24:54.615Z,3.50
2017-10-04T21:27:22.108Z,3.23
2017-10-04T21:29:49.518Z,3.30
2017-10-04T21:32:17.208Z,3.10
2017-10-04T21:34:44.626Z,3.13
2017-10-04T21:37:12.045Z,3.30
2017-10-04T21:39:39.542Z,3.20
2017-10-04T21:42:06.969Z,3.30
2017-10-04T21:44:34.367Z,3.27
2017-10-04T21:47:01.826Z,3.50
2017-10-04T21:49:29.234Z,4.57
2017-10-04T21:51:56.674Z,3.40
2017-10-04T21:54:24.171Z,6.87
2017-10-04T21:56:51.617Z,3.30
2017-10-04T21:59:19.043Z,3.20
2017-10-04T22:01:46.479Z,3.40
2017-10-04T22:04:13.946Z,3.30
2017-10-04T22:06:41.317Z,3.30
2017-10-04T22:09:08.736Z,3.67
2017-10-04T22:11:36.173Z,3.10
2017-10-04T22:14:03.557Z,3.33
2017-10-04T22:16:31.003Z,2.87
2017-10-04T22:18:58.398Z,3.47
2017-10-04T22:21:25.850Z,3.17
2017-10-04T22:23:53.237Z,3.93
2017-10-04T22:26:20.645Z,3.23
2017-10-04T22:28:48.130Z,3.37
2017-10-04T22:31:15.890Z,3.40
2017-10-04T22:33:43.315Z,2.90
2017-10-04T22:36:10.719Z,3.53
2017-10-04T22:38:38.151Z,3.50
2017-10-04T22:41:05.549Z,3.63
2017-10-04T22:43:32.965Z,2.90
2017-10-04T22:46:00.367Z,3.43
2017-10-04T22:48:27.775Z,2.97
2017-10-04T22:50:55.199Z,3.50
2017-10-04T22:53:22.815Z,2.93
2017-10-04T22:55:50.235Z,3.03
2017-10-04T22:58:17.655Z,3.20
2017-10-04T23:00:45.041Z,3.17
2017-10-04T23:03:20.124Z,3.50
2017-10-04T23:05:47.517Z,2.57
2017-10-04T23:08:14.951Z,3.20
2017-10-04T23:10:42.379Z,3.03
2017-10-04T23:13:09.810Z,2.80
2017-10-04T23:15:37.205Z,3.27
2017-10-04T23:18:04.621Z,3.10
2017-10-04T23:20:32.053Z,3.37
2017-10-04T23:22:59.452Z,3.37
2017-10-04T23:25:26.856Z,3.00
2017-10-04T23:27:54.268Z,3.33
2017-10-04T23:30:21.696Z,2.93
2017-10-04T23:32:49.102Z,3.30
2017-10-04T23:35:16.510Z,3.83
2017-10-04T23:37:43.898Z,3.67
2017-10-04T23:40:11.321Z,2.90
2017-10-04T23:42:38.922Z,3.27
2017-10-04T23:45:06.376Z,3.20
2017-10-04T23:47:33.774Z,3.50
2017-10-04T23:50:01.400Z,2.87
2017-10-04T23:52:28.815Z,3.03
2017-10-04T23:54:56.223Z,3.77
2017-10-04T23:57:23.622Z,3.57
2017-10-04T23:59:51.046Z,3.30
